Detroit, MI (48211)

4:20 PM EDT on April 27, 2017 (GMT -0400)
La Salle Gardens | | Change Station

Elev 631 ft 42.36 °N, 83.10 °W | Updated 53 seconds ago

Overcast
Overcast
70.3 °F
Feels Like 73 °F
N
4.9
Wind Variable Wind from NW
Gusts 7.4 mph

Today
High -- | Low -- °F
--% Chance of Precip.
Yesterday
High -- | Low -- °F
Precip. -- in
Pressure 29.53 in
Visibility 10.0 miles
Clouds Few 4800 ft
Mostly Cloudy 6500 ft
Overcast 9000 ft
Heat Index 73 °F
Dew Point 20 °F
Humidity 15%
Rainfall 0.09 in
Snow Depth Not available.
6:32 AM 8:27 PM
Waxing Crescent, 3% visible
METAR KDET 271953Z 23021G32KT 10SM FEW048 BKN065 OVC090 20/11 A2954 RMK AO2 PK WND 21032/1951 RAE06 SLP000 P0000 T02000106
Pressure 29.53 in
Visibility 10.0 miles
Clouds Few 4800 ft
Mostly Cloudy 6500 ft
Overcast 9000 ft
Heat Index 73 °F
Dew Point 20 °F
Humidity 15%
Rainfall 0.09 in
Snow Depth Not available.
6:32 AM 8:27 PM
Waxing Crescent, 3% visible
METAR KDET 271953Z 23021G32KT 10SM FEW048 BKN065 OVC090 20/11 A2954 RMK AO2 PK WND 21032/1951 RAE06 SLP000 P0000 T02000106

Get Severe Weather Alerts

Thanks for signing up!

Be on the lookout for a verification email in your inbox.

You'll start receiving the daily forecast at 8 AM.

×

10-Day Weather Forecast

Almanac

Astronomy

Apr. 27, 2017 Rise Set
Actual Time
Civil Twilight
Nautical Twilight
Astronomical Twilight
Moon
Length of Visible Light
Length of Day
Tomorrow will be .
, % of the Moon is Illuminated

Today's Extremes

State Highs State Lows

Community

WunderPhotos

WunderBlog® & News

Nearby

Air Quality

  Air Quality AQ Index Pollutant
Not available.

Snow Depth

Station Depth Elevation

Earthquake Activity

City Distance Mag. Time & Date
Minimum magnitude displayed is 2.5.

Coastal Water Temperatures

Place Temperature

Stations

Nearby Weather Stations

Station Location Temp. Windchill Dew Point Humidity Wind Precip. Elev Updated Type
                   

Watches & Warnings

There are currently no watches in effect.